sensor_id;sensor_type;location;lat;lon;timestamp;P1;durP1;ratioP1;P2;durP2;ratioP2
66183;SDS011;52989;48.796;9.806;2022-09-03T00:07:29;5.15;;;1.30;;
66183;SDS011;52989;48.796;9.806;2022-09-03T00:10:03;3.45;;;0.85;;
66183;SDS011;52989;48.796;9.806;2022-09-03T00:12:33;2.53;;;0.93;;
66183;SDS011;52989;48.796;9.806;2022-09-03T00:17:30;3.70;;;1.00;;
66183;SDS011;52989;48.796;9.806;2022-09-03T00:22:36;1.38;;;1.08;;
66183;SDS011;52989;48.796;9.806;2022-09-03T00:25:06;2.92;;;1.30;;
66183;SDS011;52989;48.796;9.806;2022-09-03T00:27:38;2.78;;;1.00;;
66183;SDS011;52989;48.796;9.806;2022-09-03T00:30:10;0.90;;;0.77;;
66183;SDS011;52989;48.796;9.806;2022-09-03T00:32:40;1.25;;;0.95;;
66183;SDS011;52989;48.796;9.806;2022-09-03T00:37:47;1.38;;;1.00;;
66183;SDS011;52989;48.796;9.806;2022-09-03T00:40:16;5.10;;;1.20;;
66183;SDS011;52989;48.796;9.806;2022-09-03T00:43:01;1.77;;;1.08;;
66183;SDS011;52989;48.796;9.806;2022-09-03T00:46:03;1.60;;;1.00;;
66183;SDS011;52989;48.796;9.806;2022-09-03T00:51:42;6.15;;;1.67;;
66183;SDS011;52989;48.796;9.806;2022-09-03T00:54:14;2.85;;;1.20;;
66183;SDS011;52989;48.796;9.806;2022-09-03T01:02:25;1.97;;;1.07;;
66183;SDS011;52989;48.796;9.806;2022-09-03T01:07:58;1.55;;;1.00;;
66183;SDS011;52989;48.796;9.806;2022-09-03T01:10:35;1.27;;;1.00;;
66183;SDS011;52989;48.796;9.806;2022-09-03T01:13:28;3.08;;;0.90;;
66183;SDS011;52989;48.796;9.806;2022-09-03T01:19:04;4.63;;;1.30;;
66183;SDS011;52989;48.796;9.806;2022-09-03T01:22:26;2.67;;;1.02;;
66183;SDS011;52989;48.796;9.806;2022-09-03T01:25:24;2.85;;;1.10;;
66183;SDS011;52989;48.796;9.806;2022-09-03T01:28:21;1.67;;;1.00;;
66183;SDS011;52989;48.796;9.806;2022-09-03T01:33:40;1.58;;;1.20;;
66183;SDS011;52989;48.796;9.806;2022-09-03T01:36:32;2.10;;;1.23;;
66183;SDS011;52989;48.796;9.806;2022-09-03T01:53:02;3.40;;;1.23;;
66183;SDS011;52989;48.796;9.806;2022-09-03T01:55:41;3.25;;;1.05;;
66183;SDS011;52989;48.796;9.806;2022-09-03T02:01:28;3.33;;;1.00;;
66183;SDS011;52989;48.796;9.806;2022-09-03T02:03:57;3.63;;;1.02;;
66183;SDS011;52989;48.796;9.806;2022-09-03T02:06:24;3.65;;;1.20;;
66183;SDS011;52989;48.796;9.806;2022-09-03T02:08:51;5.25;;;1.10;;
66183;SDS011;52989;48.796;9.806;2022-09-03T02:11:17;3.83;;;1.33;;
66183;SDS011;52989;48.796;9.806;2022-09-03T02:13:44;1.30;;;0.90;;
66183;SDS011;52989;48.796;9.806;2022-09-03T02:16:15;2.35;;;1.20;;
66183;SDS011;52989;48.796;9.806;2022-09-03T02:18:55;3.10;;;1.00;;
66183;SDS011;52989;48.796;9.806;2022-09-03T02:21:24;1.58;;;1.08;;
66183;SDS011;52989;48.796;9.806;2022-09-03T02:23:51;2.80;;;1.23;;
66183;SDS011;52989;48.796;9.806;2022-09-03T02:26:18;3.72;;;1.20;;
66183;SDS011;52989;48.796;9.806;2022-09-03T02:28:47;1.95;;;1.08;;
66183;SDS011;52989;48.796;9.806;2022-09-03T02:31:14;1.50;;;0.98;;
66183;SDS011;52989;48.796;9.806;2022-09-03T02:33:41;1.55;;;1.13;;
66183;SDS011;52989;48.796;9.806;2022-09-03T02:36:09;1.67;;;1.20;;
66183;SDS011;52989;48.796;9.806;2022-09-03T02:38:36;2.53;;;1.27;;
66183;SDS011;52989;48.796;9.806;2022-09-03T02:41:05;3.90;;;1.23;;
66183;SDS011;52989;48.796;9.806;2022-09-03T02:43:48;3.45;;;1.20;;
66183;SDS011;52989;48.796;9.806;2022-09-03T02:46:23;2.65;;;1.20;;
66183;SDS011;52989;48.796;9.806;2022-09-03T02:48:53;2.20;;;1.20;;
66183;SDS011;52989;48.796;9.806;2022-09-03T02:51:19;2.28;;;0.93;;
66183;SDS011;52989;48.796;9.806;2022-09-03T02:53:44;2.38;;;1.23;;
66183;SDS011;52989;48.796;9.806;2022-09-03T02:56:10;2.83;;;1.50;;
66183;SDS011;52989;48.796;9.806;2022-09-03T02:58:36;2.50;;;1.70;;
66183;SDS011;52989;48.796;9.806;2022-09-03T03:01:02;5.25;;;3.55;;
66183;SDS011;52989;48.796;9.806;2022-09-03T03:03:29;4.97;;;3.00;;
66183;SDS011;52989;48.796;9.806;2022-09-03T03:05:55;3.10;;;1.90;;
66183;SDS011;52989;48.796;9.806;2022-09-03T03:08:25;5.90;;;1.85;;
66183;SDS011;52989;48.796;9.806;2022-09-03T03:10:53;4.97;;;2.17;;
66183;SDS011;52989;48.796;9.806;2022-09-03T03:13:22;3.28;;;1.80;;
66183;SDS011;52989;48.796;9.806;2022-09-03T03:15:49;5.43;;;1.40;;
66183;SDS011;52989;48.796;9.806;2022-09-03T03:18:14;4.10;;;1.48;;
66183;SDS011;52989;48.796;9.806;2022-09-03T03:20:41;2.05;;;1.27;;
66183;SDS011;52989;48.796;9.806;2022-09-03T03:23:08;2.55;;;1.40;;
66183;SDS011;52989;48.796;9.806;2022-09-03T03:25:34;2.42;;;1.27;;
66183;SDS011;52989;48.796;9.806;2022-09-03T03:28:02;1.75;;;1.30;;
66183;SDS011;52989;48.796;9.806;2022-09-03T03:30:29;2.00;;;1.30;;
66183;SDS011;52989;48.796;9.806;2022-09-03T03:32:56;2.55;;;1.40;;
66183;SDS011;52989;48.796;9.806;2022-09-03T03:35:22;5.05;;;1.15;;
66183;SDS011;52989;48.796;9.806;2022-09-03T03:37:48;3.33;;;1.52;;
66183;SDS011;52989;48.796;9.806;2022-09-03T03:40:14;4.07;;;1.35;;
66183;SDS011;52989;48.796;9.806;2022-09-03T03:42:40;3.90;;;1.55;;
66183;SDS011;52989;48.796;9.806;2022-09-03T03:45:07;2.28;;;1.40;;
66183;SDS011;52989;48.796;9.806;2022-09-03T03:47:34;2.65;;;1.42;;
66183;SDS011;52989;48.796;9.806;2022-09-03T03:50:00;2.95;;;1.10;;
66183;SDS011;52989;48.796;9.806;2022-09-03T03:52:26;4.15;;;1.38;;
66183;SDS011;52989;48.796;9.806;2022-09-03T03:54:52;5.22;;;1.55;;
66183;SDS011;52989;48.796;9.806;2022-09-03T03:57:18;2.38;;;1.60;;
66183;SDS011;52989;48.796;9.806;2022-09-03T03:59:45;3.03;;;1.30;;
66183;SDS011;52989;48.796;9.806;2022-09-03T04:02:12;3.38;;;1.55;;
66183;SDS011;52989;48.796;9.806;2022-09-03T04:04:37;3.38;;;1.10;;
66183;SDS011;52989;48.796;9.806;2022-09-03T04:07:03;3.10;;;1.33;;
66183;SDS011;52989;48.796;9.806;2022-09-03T04:09:29;1.75;;;1.35;;
66183;SDS011;52989;48.796;9.806;2022-09-03T04:11:54;3.78;;;1.70;;
66183;SDS011;52989;48.796;9.806;2022-09-03T04:14:22;2.50;;;1.63;;
66183;SDS011;52989;48.796;9.806;2022-09-03T04:16:48;2.60;;;1.33;;
66183;SDS011;52989;48.796;9.806;2022-09-03T04:19:15;1.75;;;1.20;;
66183;SDS011;52989;48.796;9.806;2022-09-03T04:21:41;2.50;;;1.25;;
66183;SDS011;52989;48.796;9.806;2022-09-03T04:24:07;2.00;;;1.58;;
66183;SDS011;52989;48.796;9.806;2022-09-03T04:26:33;5.68;;;1.50;;
66183;SDS011;52989;48.796;9.806;2022-09-03T04:29:00;2.70;;;1.50;;
66183;SDS011;52989;48.796;9.806;2022-09-03T04:31:28;5.35;;;1.55;;
66183;SDS011;52989;48.796;9.806;2022-09-03T04:33:54;2.88;;;1.60;;
66183;SDS011;52989;48.796;9.806;2022-09-03T04:36:21;2.72;;;1.30;;
66183;SDS011;52989;48.796;9.806;2022-09-03T04:38:49;3.78;;;1.50;;
66183;SDS011;52989;48.796;9.806;2022-09-03T04:41:22;2.97;;;1.40;;
66183;SDS011;52989;48.796;9.806;2022-09-03T04:43:50;8.10;;;1.73;;
66183;SDS011;52989;48.796;9.806;2022-09-03T04:46:17;3.15;;;1.33;;
66183;SDS011;52989;48.796;9.806;2022-09-03T04:48:46;2.30;;;1.42;;
66183;SDS011;52989;48.796;9.806;2022-09-03T04:51:15;1.45;;;1.23;;
66183;SDS011;52989;48.796;9.806;2022-09-03T04:53:43;2.88;;;1.20;;
66183;SDS011;52989;48.796;9.806;2022-09-03T04:56:20;3.53;;;1.40;;
66183;SDS011;52989;48.796;9.806;2022-09-03T04:58:48;3.85;;;1.48;;
66183;SDS011;52989;48.796;9.806;2022-09-03T05:01:19;2.35;;;1.20;;
66183;SDS011;52989;48.796;9.806;2022-09-03T05:03:45;1.98;;;1.40;;
66183;SDS011;52989;48.796;9.806;2022-09-03T05:06:12;2.97;;;1.20;;
66183;SDS011;52989;48.796;9.806;2022-09-03T05:08:38;2.90;;;1.65;;
66183;SDS011;52989;48.796;9.806;2022-09-03T05:11:05;2.08;;;1.10;;
66183;SDS011;52989;48.796;9.806;2022-09-03T05:13:32;2.20;;;1.55;;
66183;SDS011;52989;48.796;9.806;2022-09-03T05:16:00;2.03;;;1.50;;
66183;SDS011;52989;48.796;9.806;2022-09-03T05:18:28;2.38;;;1.45;;
66183;SDS011;52989;48.796;9.806;2022-09-03T05:21:13;1.83;;;1.48;;
66183;SDS011;52989;48.796;9.806;2022-09-03T05:23:41;4.78;;;1.67;;
66183;SDS011;52989;48.796;9.806;2022-09-03T05:26:12;2.85;;;1.50;;
66183;SDS011;52989;48.796;9.806;2022-09-03T05:28:40;2.67;;;1.70;;
66183;SDS011;52989;48.796;9.806;2022-09-03T05:33:45;3.10;;;1.77;;
66183;SDS011;52989;48.796;9.806;2022-09-03T05:36:22;3.38;;;1.55;;
66183;SDS011;52989;48.796;9.806;2022-09-03T05:38:49;2.53;;;1.52;;
66183;SDS011;52989;48.796;9.806;2022-09-03T05:41:16;2.55;;;1.50;;
66183;SDS011;52989;48.796;9.806;2022-09-03T05:43:42;4.32;;;1.73;;
66183;SDS011;52989;48.796;9.806;2022-09-03T05:46:11;4.10;;;1.70;;
66183;SDS011;52989;48.796;9.806;2022-09-03T05:48:39;2.78;;;1.70;;
66183;SDS011;52989;48.796;9.806;2022-09-03T05:51:06;3.80;;;1.60;;
66183;SDS011;52989;48.796;9.806;2022-09-03T05:53:34;5.65;;;1.80;;
66183;SDS011;52989;48.796;9.806;2022-09-03T05:56:03;5.00;;;1.73;;
66183;SDS011;52989;48.796;9.806;2022-09-03T05:58:31;4.20;;;1.80;;
66183;SDS011;52989;48.796;9.806;2022-09-03T06:00:58;2.60;;;1.88;;
66183;SDS011;52989;48.796;9.806;2022-09-03T06:03:24;3.17;;;1.85;;
66183;SDS011;52989;48.796;9.806;2022-09-03T06:05:51;3.10;;;1.60;;
66183;SDS011;52989;48.796;9.806;2022-09-03T06:08:18;2.58;;;1.80;;
66183;SDS011;52989;48.796;9.806;2022-09-03T06:10:45;2.00;;;1.83;;
66183;SDS011;52989;48.796;9.806;2022-09-03T06:13:10;3.60;;;1.83;;
66183;SDS011;52989;48.796;9.806;2022-09-03T06:15:36;3.20;;;1.80;;
66183;SDS011;52989;48.796;9.806;2022-09-03T06:18:02;3.28;;;1.85;;
66183;SDS011;52989;48.796;9.806;2022-09-03T06:20:28;3.78;;;1.70;;
66183;SDS011;52989;48.796;9.806;2022-09-03T06:22:54;4.30;;;2.10;;
66183;SDS011;52989;48.796;9.806;2022-09-03T06:25:20;2.90;;;1.80;;
66183;SDS011;52989;48.796;9.806;2022-09-03T06:27:45;3.53;;;1.90;;
66183;SDS011;52989;48.796;9.806;2022-09-03T06:30:12;2.33;;;1.80;;
66183;SDS011;52989;48.796;9.806;2022-09-03T06:32:43;3.65;;;2.22;;
66183;SDS011;52989;48.796;9.806;2022-09-03T06:35:09;3.75;;;1.90;;
66183;SDS011;52989;48.796;9.806;2022-09-03T06:37:38;2.60;;;2.08;;
66183;SDS011;52989;48.796;9.806;2022-09-03T06:40:04;3.20;;;2.10;;
66183;SDS011;52989;48.796;9.806;2022-09-03T06:42:36;2.92;;;1.65;;
66183;SDS011;52989;48.796;9.806;2022-09-03T06:45:06;2.63;;;2.00;;
66183;SDS011;52989;48.796;9.806;2022-09-03T06:47:33;2.95;;;2.17;;
66183;SDS011;52989;48.796;9.806;2022-09-03T06:49:59;2.25;;;1.80;;
66183;SDS011;52989;48.796;9.806;2022-09-03T06:52:25;3.30;;;2.15;;
66183;SDS011;52989;48.796;9.806;2022-09-03T06:54:51;5.35;;;2.17;;
66183;SDS011;52989;48.796;9.806;2022-09-03T06:57:17;2.40;;;1.90;;
66183;SDS011;52989;48.796;9.806;2022-09-03T06:59:43;3.17;;;2.20;;
66183;SDS011;52989;48.796;9.806;2022-09-03T07:02:09;3.97;;;2.08;;
66183;SDS011;52989;48.796;9.806;2022-09-03T07:04:34;4.18;;;2.25;;
66183;SDS011;52989;48.796;9.806;2022-09-03T07:07:00;2.85;;;1.92;;
66183;SDS011;52989;48.796;9.806;2022-09-03T07:09:26;3.65;;;2.20;;
66183;SDS011;52989;48.796;9.806;2022-09-03T07:11:52;4.65;;;2.22;;
66183;SDS011;52989;48.796;9.806;2022-09-03T07:14:17;3.45;;;1.80;;
66183;SDS011;52989;48.796;9.806;2022-09-03T07:16:44;2.70;;;2.17;;
66183;SDS011;52989;48.796;9.806;2022-09-03T07:19:10;3.42;;;2.03;;
66183;SDS011;52989;48.796;9.806;2022-09-03T07:21:37;5.30;;;1.85;;
66183;SDS011;52989;48.796;9.806;2022-09-03T07:24:05;2.75;;;2.15;;
66183;SDS011;52989;48.796;9.806;2022-09-03T07:26:36;3.33;;;2.38;;
66183;SDS011;52989;48.796;9.806;2022-09-03T07:29:03;3.58;;;2.20;;
66183;SDS011;52989;48.796;9.806;2022-09-03T07:31:33;2.85;;;2.20;;
66183;SDS011;52989;48.796;9.806;2022-09-03T07:34:04;2.85;;;1.90;;
66183;SDS011;52989;48.796;9.806;2022-09-03T07:36:36;5.65;;;2.10;;
66183;SDS011;52989;48.796;9.806;2022-09-03T07:39:06;4.80;;;2.17;;
66183;SDS011;52989;48.796;9.806;2022-09-03T07:41:33;4.55;;;2.13;;
66183;SDS011;52989;48.796;9.806;2022-09-03T07:43:59;6.40;;;2.30;;
66183;SDS011;52989;48.796;9.806;2022-09-03T07:46:30;3.55;;;2.20;;
66183;SDS011;52989;48.796;9.806;2022-09-03T07:48:58;6.65;;;2.00;;
66183;SDS011;52989;48.796;9.806;2022-09-03T07:51:28;4.93;;;2.20;;
66183;SDS011;52989;48.796;9.806;2022-09-03T07:53:56;3.05;;;2.13;;
66183;SDS011;52989;48.796;9.806;2022-09-03T07:56:24;2.70;;;1.95;;
66183;SDS011;52989;48.796;9.806;2022-09-03T07:58:51;2.60;;;2.00;;
66183;SDS011;52989;48.796;9.806;2022-09-03T08:01:18;3.10;;;2.10;;
66183;SDS011;52989;48.796;9.806;2022-09-03T08:03:46;3.88;;;2.10;;
66183;SDS011;52989;48.796;9.806;2022-09-03T08:06:16;2.78;;;1.73;;
66183;SDS011;52989;48.796;9.806;2022-09-03T08:08:57;8.57;;;2.33;;
66183;SDS011;52989;48.796;9.806;2022-09-03T08:11:25;7.80;;;2.38;;
66183;SDS011;52989;48.796;9.806;2022-09-03T08:13:53;4.60;;;2.20;;
66183;SDS011;52989;48.796;9.806;2022-09-03T08:16:25;5.05;;;2.28;;
66183;SDS011;52989;48.796;9.806;2022-09-03T08:18:51;7.22;;;2.40;;
66183;SDS011;52989;48.796;9.806;2022-09-03T08:21:18;3.00;;;2.28;;
66183;SDS011;52989;48.796;9.806;2022-09-03T08:23:45;5.32;;;2.13;;
66183;SDS011;52989;48.796;9.806;2022-09-03T08:26:14;4.72;;;2.20;;
66183;SDS011;52989;48.796;9.806;2022-09-03T08:28:41;3.03;;;2.00;;
66183;SDS011;52989;48.796;9.806;2022-09-03T08:31:08;3.78;;;1.95;;
66183;SDS011;52989;48.796;9.806;2022-09-03T08:33:38;2.40;;;1.88;;
66183;SDS011;52989;48.796;9.806;2022-09-03T08:36:18;4.75;;;2.00;;
66183;SDS011;52989;48.796;9.806;2022-09-03T08:47:21;3.80;;;1.70;;
66183;SDS011;52989;48.796;9.806;2022-09-03T08:52:33;3.78;;;2.10;;
66183;SDS011;52989;48.796;9.806;2022-09-03T08:55:15;2.63;;;1.88;;
66183;SDS011;52989;48.796;9.806;2022-09-03T08:57:48;4.95;;;2.10;;
66183;SDS011;52989;48.796;9.806;2022-09-03T09:06:27;12.47;;;2.47;;
66183;SDS011;52989;48.796;9.806;2022-09-03T09:14:59;187.63;;;13.13;;
66183;SDS011;52989;48.796;9.806;2022-09-03T09:23:18;488.80;;;39.50;;
66183;SDS011;52989;48.796;9.806;2022-09-03T09:25:54;387.85;;;31.88;;
66183;SDS011;52989;48.796;9.806;2022-09-03T09:28:33;14.90;;;3.25;;
66183;SDS011;52989;48.796;9.806;2022-09-03T09:31:02;150.50;;;14.68;;
66183;SDS011;52989;48.796;9.806;2022-09-03T09:33:29;4.63;;;2.50;;
66183;SDS011;52989;48.796;9.806;2022-09-03T09:35:58;208.25;;;17.85;;
66183;SDS011;52989;48.796;9.806;2022-09-03T09:38:30;245.05;;;20.77;;
66183;SDS011;52989;48.796;9.806;2022-09-03T09:41:06;145.88;;;14.68;;
66183;SDS011;52989;48.796;9.806;2022-09-03T09:43:34;50.08;;;5.90;;
66183;SDS011;52989;48.796;9.806;2022-09-03T09:46:05;81.22;;;6.40;;
66183;SDS011;52989;48.796;9.806;2022-09-03T09:51:05;17.55;;;2.88;;
66183;SDS011;52989;48.796;9.806;2022-09-03T09:53:38;17.58;;;3.20;;
66183;SDS011;52989;48.796;9.806;2022-09-03T09:56:05;25.23;;;4.10;;
66183;SDS011;52989;48.796;9.806;2022-09-03T09:58:31;6.63;;;1.88;;
66183;SDS011;52989;48.796;9.806;2022-09-03T10:03:38;112.18;;;9.95;;
66183;SDS011;52989;48.796;9.806;2022-09-03T10:06:12;3.47;;;2.08;;
66183;SDS011;52989;48.796;9.806;2022-09-03T10:09:04;124.88;;;10.43;;
66183;SDS011;52989;48.796;9.806;2022-09-03T10:11:34;7.88;;;2.42;;
66183;SDS011;52989;48.796;9.806;2022-09-03T10:14:05;249.80;;;18.75;;
66183;SDS011;52989;48.796;9.806;2022-09-03T10:16:36;195.63;;;15.65;;
66183;SDS011;52989;48.796;9.806;2022-09-03T10:19:08;82.28;;;7.32;;
66183;SDS011;52989;48.796;9.806;2022-09-03T10:27:05;4.18;;;2.08;;
66183;SDS011;52989;48.796;9.806;2022-09-03T10:29:36;7.65;;;2.15;;
66183;SDS011;52989;48.796;9.806;2022-09-03T10:40:43;3.00;;;1.50;;
66183;SDS011;52989;48.796;9.806;2022-09-03T10:46:08;2.53;;;1.67;;
66183;SDS011;52989;48.796;9.806;2022-09-03T11:05:15;2.03;;;1.65;;
66183;SDS011;52989;48.796;9.806;2022-09-03T11:08:27;3.75;;;1.92;;
66183;SDS011;52989;48.796;9.806;2022-09-03T11:13:58;3.10;;;1.70;;
66183;SDS011;52989;48.796;9.806;2022-09-03T11:16:32;7.55;;;2.13;;
66183;SDS011;52989;48.796;9.806;2022-09-03T11:19:30;2.33;;;1.60;;
66183;SDS011;52989;48.796;9.806;2022-09-03T11:22:05;2.08;;;1.50;;
66183;SDS011;52989;48.796;9.806;2022-09-03T11:24:32;21.23;;;1.98;;
66183;SDS011;52989;48.796;9.806;2022-09-03T11:27:16;4.72;;;1.73;;
66183;SDS011;52989;48.796;9.806;2022-09-03T11:29:58;2.30;;;1.77;;
66183;SDS011;52989;48.796;9.806;2022-09-03T11:32:39;3.22;;;1.52;;
66183;SDS011;52989;48.796;9.806;2022-09-03T11:35:15;4.35;;;1.85;;
66183;SDS011;52989;48.796;9.806;2022-09-03T11:37:59;2.97;;;1.50;;
66183;SDS011;52989;48.796;9.806;2022-09-03T11:40:28;2.10;;;1.60;;
66183;SDS011;52989;48.796;9.806;2022-09-03T11:43:23;2.33;;;1.70;;
66183;SDS011;52989;48.796;9.806;2022-09-03T11:46:10;3.53;;;1.45;;
66183;SDS011;52989;48.796;9.806;2022-09-03T11:48:39;2.88;;;1.50;;
66183;SDS011;52989;48.796;9.806;2022-09-03T11:51:16;1.80;;;1.60;;
66183;SDS011;52989;48.796;9.806;2022-09-03T11:56:28;1.98;;;1.58;;
66183;SDS011;52989;48.796;9.806;2022-09-03T11:59:02;2.50;;;1.58;;
66183;SDS011;52989;48.796;9.806;2022-09-03T12:01:38;2.05;;;1.60;;
66183;SDS011;52989;48.796;9.806;2022-09-03T12:04:12;3.42;;;1.63;;
66183;SDS011;52989;48.796;9.806;2022-09-03T12:15:17;8.98;;;2.13;;
66183;SDS011;52989;48.796;9.806;2022-09-03T12:17:51;26.48;;;2.92;;
66183;SDS011;52989;48.796;9.806;2022-09-03T12:20:37;3.55;;;1.92;;
66183;SDS011;52989;48.796;9.806;2022-09-03T12:23:04;16.52;;;2.45;;
66183;SDS011;52989;48.796;9.806;2022-09-03T12:25:30;11.23;;;2.30;;
66183;SDS011;52989;48.796;9.806;2022-09-03T12:27:56;6.38;;;1.83;;
66183;SDS011;52989;48.796;9.806;2022-09-03T12:30:27;8.93;;;1.95;;
66183;SDS011;52989;48.796;9.806;2022-09-03T12:33:02;40.72;;;3.40;;
66183;SDS011;52989;48.796;9.806;2022-09-03T12:35:29;20.10;;;2.22;;
66183;SDS011;52989;48.796;9.806;2022-09-03T12:37:55;61.25;;;4.97;;
66183;SDS011;52989;48.796;9.806;2022-09-03T12:40:21;11.95;;;2.22;;
66183;SDS011;52989;48.796;9.806;2022-09-03T12:42:52;4.90;;;1.83;;
66183;SDS011;52989;48.796;9.806;2022-09-03T12:45:20;19.23;;;2.45;;
66183;SDS011;52989;48.796;9.806;2022-09-03T12:47:47;27.58;;;2.90;;
66183;SDS011;52989;48.796;9.806;2022-09-03T12:50:14;13.23;;;2.70;;
66183;SDS011;52989;48.796;9.806;2022-09-03T12:52:50;18.30;;;2.90;;
66183;SDS011;52989;48.796;9.806;2022-09-03T13:01:15;7.32;;;2.30;;
66183;SDS011;52989;48.796;9.806;2022-09-03T13:03:47;4.82;;;2.30;;
66183;SDS011;52989;48.796;9.806;2022-09-03T13:06:22;5.53;;;2.28;;
66183;SDS011;52989;48.796;9.806;2022-09-03T13:09:02;8.02;;;2.00;;
66183;SDS011;52989;48.796;9.806;2022-09-03T13:11:32;8.85;;;2.30;;
66183;SDS011;52989;48.796;9.806;2022-09-03T13:22:05;13.80;;;3.85;;
66183;SDS011;52989;48.796;9.806;2022-09-03T13:25:33;11.98;;;3.28;;
66183;SDS011;52989;48.796;9.806;2022-09-03T13:28:14;7.22;;;2.90;;
66183;SDS011;52989;48.796;9.806;2022-09-03T13:33:33;5.85;;;2.53;;
66183;SDS011;52989;48.796;9.806;2022-09-03T13:36:09;7.30;;;3.00;;
66183;SDS011;52989;48.796;9.806;2022-09-03T13:38:53;5.95;;;2.03;;
66183;SDS011;52989;48.796;9.806;2022-09-03T13:41:50;3.08;;;2.08;;
66183;SDS011;52989;48.796;9.806;2022-09-03T13:47:08;4.85;;;2.95;;
66183;SDS011;52989;48.796;9.806;2022-09-03T13:52:39;10.48;;;2.80;;
66183;SDS011;52989;48.796;9.806;2022-09-03T13:57:54;6.68;;;2.25;;
66183;SDS011;52989;48.796;9.806;2022-09-03T14:17:17;2.90;;;1.67;;
66183;SDS011;52989;48.796;9.806;2022-09-03T14:20:07;2.63;;;1.70;;
66183;SDS011;52989;48.796;9.806;2022-09-03T14:25:19;3.53;;;1.67;;
66183;SDS011;52989;48.796;9.806;2022-09-03T14:27:47;3.35;;;1.60;;
66183;SDS011;52989;48.796;9.806;2022-09-03T14:44:19;4.97;;;1.60;;
66183;SDS011;52989;48.796;9.806;2022-09-03T14:55:05;3.25;;;1.35;;
66183;SDS011;52989;48.796;9.806;2022-09-03T15:01:09;2.78;;;1.55;;
66183;SDS011;52989;48.796;9.806;2022-09-03T15:09:26;1.95;;;1.25;;
66183;SDS011;52989;48.796;9.806;2022-09-03T15:11:56;3.58;;;1.30;;
66183;SDS011;52989;48.796;9.806;2022-09-03T15:25:26;2.47;;;1.10;;
66183;SDS011;52989;48.796;9.806;2022-09-03T15:34:15;2.15;;;1.13;;
66183;SDS011;52989;48.796;9.806;2022-09-03T15:36:53;3.67;;;1.10;;
66183;SDS011;52989;48.796;9.806;2022-09-03T15:39:26;2.80;;;1.35;;
66183;SDS011;52989;48.796;9.806;2022-09-03T15:41:56;2.13;;;1.33;;
66183;SDS011;52989;48.796;9.806;2022-09-03T15:44:25;2.92;;;1.25;;
66183;SDS011;52989;48.796;9.806;2022-09-03T15:46:59;4.97;;;1.60;;
66183;SDS011;52989;48.796;9.806;2022-09-03T15:49:50;2.30;;;1.10;;
66183;SDS011;52989;48.796;9.806;2022-09-03T15:55:34;2.13;;;1.40;;
66183;SDS011;52989;48.796;9.806;2022-09-03T16:01:02;1.65;;;1.02;;
66183;SDS011;52989;48.796;9.806;2022-09-03T16:03:43;2.95;;;0.80;;
66183;SDS011;52989;48.796;9.806;2022-09-03T16:09:25;2.75;;;1.23;;
66183;SDS011;52989;48.796;9.806;2022-09-03T16:11:55;2.88;;;1.10;;
66183;SDS011;52989;48.796;9.806;2022-09-03T16:17:27;2.13;;;1.17;;
66183;SDS011;52989;48.796;9.806;2022-09-03T16:25:30;3.53;;;1.30;;
66183;SDS011;52989;48.796;9.806;2022-09-03T16:28:10;2.78;;;1.25;;
66183;SDS011;52989;48.796;9.806;2022-09-03T16:31:00;4.22;;;1.20;;
66183;SDS011;52989;48.796;9.806;2022-09-03T16:36:31;2.75;;;1.35;;
66183;SDS011;52989;48.796;9.806;2022-09-03T16:39:13;3.38;;;1.30;;
66183;SDS011;52989;48.796;9.806;2022-09-03T16:41:56;0.70;;;0.65;;
66183;SDS011;52989;48.796;9.806;2022-09-03T16:49:55;2.22;;;1.00;;
66183;SDS011;52989;48.796;9.806;2022-09-03T16:58:16;3.63;;;1.10;;
66183;SDS011;52989;48.796;9.806;2022-09-03T17:03:36;2.95;;;1.23;;
66183;SDS011;52989;48.796;9.806;2022-09-03T17:11:41;2.20;;;1.58;;
66183;SDS011;52989;48.796;9.806;2022-09-03T17:25:03;7.75;;;2.20;;
66183;SDS011;52989;48.796;9.806;2022-09-03T17:36:18;6.13;;;3.70;;
66183;SDS011;52989;48.796;9.806;2022-09-03T17:39:09;7.65;;;3.25;;
66183;SDS011;52989;48.796;9.806;2022-09-03T17:41:49;5.35;;;3.35;;
66183;SDS011;52989;48.796;9.806;2022-09-03T17:47:30;6.85;;;2.92;;
66183;SDS011;52989;48.796;9.806;2022-09-03T17:50:18;4.15;;;2.72;;
66183;SDS011;52989;48.796;9.806;2022-09-03T17:53:02;5.15;;;2.50;;
66183;SDS011;52989;48.796;9.806;2022-09-03T17:56:10;5.53;;;2.50;;
66183;SDS011;52989;48.796;9.806;2022-09-03T17:58:34;4.30;;;2.40;;
66183;SDS011;52989;48.796;9.806;2022-09-03T18:01:15;4.80;;;2.80;;
66183;SDS011;52989;48.796;9.806;2022-09-03T18:09:08;3.75;;;2.70;;
66183;SDS011;52989;48.796;9.806;2022-09-03T18:12:10;4.93;;;2.58;;
66183;SDS011;52989;48.796;9.806;2022-09-03T18:20:15;4.63;;;2.65;;
66183;SDS011;52989;48.796;9.806;2022-09-03T18:23:01;4.35;;;2.20;;
66183;SDS011;52989;48.796;9.806;2022-09-03T18:26:06;3.78;;;2.13;;
66183;SDS011;52989;48.796;9.806;2022-09-03T18:28:58;8.65;;;2.47;;
66183;SDS011;52989;48.796;9.806;2022-09-03T18:31:46;9.65;;;3.45;;
66183;SDS011;52989;48.796;9.806;2022-09-03T18:37:16;6.78;;;3.67;;
66183;SDS011;52989;48.796;9.806;2022-09-03T18:40:06;7.80;;;4.53;;
66183;SDS011;52989;48.796;9.806;2022-09-03T18:43:08;7.50;;;4.75;;
66183;SDS011;52989;48.796;9.806;2022-09-03T18:49:18;4.78;;;3.50;;
66183;SDS011;52989;48.796;9.806;2022-09-03T18:58:51;4.15;;;2.92;;
66183;SDS011;52989;48.796;9.806;2022-09-03T19:02:03;6.00;;;3.05;;
66183;SDS011;52989;48.796;9.806;2022-09-03T19:14:25;5.33;;;2.93;;
66183;SDS011;52989;48.796;9.806;2022-09-03T19:17:19;6.05;;;3.20;;
66183;SDS011;52989;48.796;9.806;2022-09-03T19:20:40;5.95;;;3.05;;
66183;SDS011;52989;48.796;9.806;2022-09-03T19:23:47;6.68;;;3.13;;
66183;SDS011;52989;48.796;9.806;2022-09-03T19:26:37;6.40;;;3.30;;
66183;SDS011;52989;48.796;9.806;2022-09-03T19:32:50;11.32;;;3.60;;
66183;SDS011;52989;48.796;9.806;2022-09-03T19:35:42;9.50;;;3.55;;
66183;SDS011;52989;48.796;9.806;2022-09-03T19:38:49;8.40;;;3.22;;
66183;SDS011;52989;48.796;9.806;2022-09-03T19:42:10;6.10;;;3.65;;
66183;SDS011;52989;48.796;9.806;2022-09-03T19:45:18;5.97;;;3.22;;
66183;SDS011;52989;48.796;9.806;2022-09-03T19:53:58;8.52;;;3.72;;
66183;SDS011;52989;48.796;9.806;2022-09-03T19:56:47;10.77;;;4.20;;
66183;SDS011;52989;48.796;9.806;2022-09-03T19:59:35;8.07;;;4.43;;
66183;SDS011;52989;48.796;9.806;2022-09-03T20:02:22;13.05;;;4.82;;
66183;SDS011;52989;48.796;9.806;2022-09-03T20:05:09;8.07;;;4.68;;
66183;SDS011;52989;48.796;9.806;2022-09-03T20:07:59;7.00;;;4.28;;
66183;SDS011;52989;48.796;9.806;2022-09-03T20:10:43;6.63;;;4.00;;
66183;SDS011;52989;48.796;9.806;2022-09-03T20:13:16;4.88;;;3.90;;
66183;SDS011;52989;48.796;9.806;2022-09-03T20:24:28;7.53;;;4.32;;
66183;SDS011;52989;48.796;9.806;2022-09-03T20:27:23;8.85;;;3.75;;
66183;SDS011;52989;48.796;9.806;2022-09-03T20:30:12;18.80;;;4.75;;
66183;SDS011;52989;48.796;9.806;2022-09-03T20:38:39;6.40;;;3.85;;
66183;SDS011;52989;48.796;9.806;2022-09-03T20:41:34;9.13;;;3.90;;
66183;SDS011;52989;48.796;9.806;2022-09-03T20:44:30;8.40;;;4.07;;
66183;SDS011;52989;48.796;9.806;2022-09-03T20:52:59;6.50;;;3.60;;
66183;SDS011;52989;48.796;9.806;2022-09-03T20:55:46;4.55;;;3.42;;
66183;SDS011;52989;48.796;9.806;2022-09-03T21:01:03;5.65;;;3.83;;
66183;SDS011;52989;48.796;9.806;2022-09-03T21:03:53;9.13;;;3.25;;
66183;SDS011;52989;48.796;9.806;2022-09-03T21:06:46;7.40;;;3.50;;
66183;SDS011;52989;48.796;9.806;2022-09-03T21:14:34;20.15;;;4.32;;
66183;SDS011;52989;48.796;9.806;2022-09-03T21:17:23;7.28;;;3.90;;
66183;SDS011;52989;48.796;9.806;2022-09-03T21:22:47;12.45;;;4.30;;
66183;SDS011;52989;48.796;9.806;2022-09-03T21:25:39;11.95;;;4.70;;
66183;SDS011;52989;48.796;9.806;2022-09-03T21:28:31;15.60;;;5.30;;
66183;SDS011;52989;48.796;9.806;2022-09-03T21:31:03;14.02;;;4.65;;